createdAt,value
2023-05-25T00:01:49.444Z,18.24
2023-05-25T00:04:59.350Z,18.31
2023-05-25T00:08:03.055Z,18.37
2023-05-25T00:11:09.801Z,18.44
2023-05-25T00:14:13.998Z,18.60
2023-05-25T00:17:22.101Z,18.48
2023-05-25T00:20:33.290Z,18.41
2023-05-25T00:23:50.208Z,18.14
2023-05-25T00:26:53.993Z,17.60
2023-05-25T00:29:57.473Z,17.93
2023-05-25T00:33:04.187Z,18.02
2023-05-25T00:36:11.502Z,18.24
2023-05-25T00:39:19.845Z,18.03
2023-05-25T00:42:35.766Z,18.24
2023-05-25T00:45:39.836Z,18.47
2023-05-25T00:48:54.926Z,18.48
2023-05-25T00:52:05.773Z,18.41
2023-05-25T00:55:25.113Z,18.05
2023-05-25T00:58:37.570Z,18.09
2023-05-25T01:01:55.125Z,17.82
2023-05-25T01:05:21.481Z,18.02
2023-05-25T01:08:42.431Z,18.06
2023-05-25T01:11:50.746Z,17.60
2023-05-25T01:14:55.385Z,17.83
2023-05-25T01:18:02.072Z,17.61
2023-05-25T01:21:24.194Z,17.70
2023-05-25T01:24:45.984Z,17.60
2023-05-25T01:28:03.922Z,17.63
2023-05-25T01:31:26.294Z,17.52
2023-05-25T01:34:53.154Z,17.60
2023-05-25T01:38:02.914Z,17.67
2023-05-25T01:41:10.043Z,17.38
2023-05-25T01:44:14.679Z,17.24
2023-05-25T01:47:31.672Z,17.29
2023-05-25T01:50:54.669Z,17.32
2023-05-25T01:54:18.674Z,17.36
2023-05-25T01:57:36.495Z,17.12
2023-05-25T02:01:01.744Z,17.25
2023-05-25T02:04:23.601Z,17.32
2023-05-25T02:07:41.137Z,17.39
2023-05-25T02:10:55.574Z,17.27
2023-05-25T02:13:58.524Z,17.40
2023-05-25T02:17:02.379Z,17.36
2023-05-25T02:20:13.236Z,17.51
2023-05-25T02:23:19.102Z,17.42
2023-05-25T02:26:22.015Z,17.38
2023-05-25T02:29:42.675Z,17.29
2023-05-25T02:32:54.103Z,17.46
2023-05-25T02:35:57.870Z,17.46
2023-05-25T02:39:02.282Z,17.20
2023-05-25T02:42:08.547Z,17.37
2023-05-25T02:45:12.244Z,17.21
2023-05-25T02:48:18.293Z,17.14
2023-05-25T02:51:35.029Z,17.00
2023-05-25T02:54:48.868Z,16.99
2023-05-25T02:58:23.745Z,16.88
2023-05-25T03:01:51.440Z,16.63
2023-05-25T03:04:54.936Z,16.52
2023-05-25T03:07:58.639Z,16.92
2023-05-25T03:11:08.396Z,17.02
2023-05-25T03:14:25.183Z,17.11
2023-05-25T03:17:52.793Z,16.81
2023-05-25T03:21:15.759Z,16.64
2023-05-25T03:24:27.124Z,16.54
2023-05-25T03:27:48.169Z,16.44
2023-05-25T03:31:04.637Z,16.70
2023-05-25T03:34:11.575Z,16.80
2023-05-25T03:37:16.163Z,16.65
2023-05-25T03:40:30.738Z,16.84
2023-05-25T03:43:51.774Z,17.09
2023-05-25T03:47:13.773Z,16.95
2023-05-25T03:50:16.996Z,17.07
2023-05-25T03:53:20.736Z,17.18
2023-05-25T03:56:30.415Z,16.76
2023-05-25T03:59:51.342Z,16.83
2023-05-25T04:03:15.303Z,16.72
2023-05-25T04:06:19.664Z,16.57
2023-05-25T04:09:36.975Z,16.74
2023-05-25T04:12:43.245Z,16.86
2023-05-25T04:15:46.382Z,16.76
2023-05-25T04:19:10.621Z,16.83
2023-05-25T04:22:30.706Z,16.79
2023-05-25T04:25:51.726Z,16.95
2023-05-25T04:29:08.041Z,17.13
2023-05-25T04:32:41.440Z,17.32
2023-05-25T04:36:06.885Z,17.56
2023-05-25T04:39:10.011Z,17.68
2023-05-25T04:42:24.049Z,17.96
2023-05-25T04:45:32.006Z,17.94
2023-05-25T04:48:46.437Z,17.92
2023-05-25T04:51:49.663Z,17.94
2023-05-25T04:55:13.582Z,17.92
2023-05-25T04:58:19.513Z,17.81
2023-05-25T05:01:24.327Z,17.95
2023-05-25T05:04:34.523Z,17.61
2023-05-25T05:07:48.778Z,17.82
2023-05-25T05:10:51.804Z,18.04
2023-05-25T05:14:05.771Z,17.97
2023-05-25T05:17:26.533Z,18.13
2023-05-25T05:20:48.227Z,18.24
2023-05-25T05:24:10.453Z,18.43
2023-05-25T05:27:27.278Z,18.47
2023-05-25T05:30:54.676Z,18.55
2023-05-25T05:34:16.441Z,18.65
2023-05-25T05:37:37.458Z,18.79
2023-05-25T05:40:40.828Z,18.81
2023-05-25T05:43:46.035Z,18.89
2023-05-25T05:47:09.391Z,19.04
2023-05-25T05:50:45.429Z,19.11
2023-05-25T05:53:55.454Z,19.29
2023-05-25T05:56:58.701Z,19.34
2023-05-25T06:00:05.025Z,19.45
2023-05-25T06:03:18.508Z,19.57
2023-05-25T06:06:28.963Z,19.72
2023-05-25T06:09:53.398Z,19.75
2023-05-25T06:13:17.231Z,19.77
2023-05-25T06:16:40.395Z,19.78
2023-05-25T06:19:57.279Z,19.70
2023-05-25T06:23:07.846Z,19.89
2023-05-25T06:26:11.182Z,20.13
2023-05-25T06:29:17.015Z,20.22
2023-05-25T06:32:26.914Z,20.13
2023-05-25T06:35:32.208Z,20.13
2023-05-25T06:38:41.918Z,20.13
2023-05-25T06:41:48.911Z,20.27
2023-05-25T06:45:06.677Z,20.39
2023-05-25T06:48:09.915Z,19.94
2023-05-25T06:51:13.911Z,20.52
2023-05-25T06:54:17.783Z,20.62
2023-05-25T06:57:32.173Z,20.67
2023-05-25T07:00:35.496Z,20.65
2023-05-25T07:03:39.008Z,20.69
2023-05-25T07:06:43.041Z,20.77
2023-05-25T07:09:51.646Z,20.96
2023-05-25T07:12:58.853Z,21.01
2023-05-25T07:16:02.565Z,20.98
2023-05-25T07:19:05.920Z,20.95
2023-05-25T07:22:22.403Z,21.00
2023-05-25T07:25:39.102Z,21.19
2023-05-25T07:28:45.881Z,21.11
2023-05-25T07:32:02.182Z,21.25
2023-05-25T07:35:09.759Z,21.22
2023-05-25T07:38:12.955Z,21.36
2023-05-25T07:41:32.561Z,21.66
2023-05-25T07:44:35.754Z,21.47
2023-05-25T07:47:39.655Z,21.41
2023-05-25T07:50:43.644Z,21.72
2023-05-25T07:53:46.585Z,21.82
2023-05-25T07:56:55.796Z,21.75
2023-05-25T08:00:11.379Z,21.61
2023-05-25T08:03:39.569Z,21.88
2023-05-25T08:07:01.705Z,21.84
2023-05-25T08:10:12.078Z,21.84
2023-05-25T08:14:03.394Z,22.15
2023-05-25T08:17:10.703Z,22.20
2023-05-25T08:20:26.130Z,22.19
2023-05-25T08:23:47.104Z,22.24
2023-05-25T08:27:08.227Z,22.58
2023-05-25T08:30:29.141Z,22.30
2023-05-25T08:33:45.199Z,22.59
2023-05-25T08:37:06.200Z,22.79
2023-05-25T08:40:24.237Z,22.98
2023-05-25T08:43:38.148Z,22.85
2023-05-25T08:47:03.089Z,23.19
2023-05-25T08:50:15.552Z,23.02
2023-05-25T08:53:36.534Z,23.72
2023-05-25T08:56:56.409Z,23.98
2023-05-25T09:05:05.127Z,23.88
2023-05-25T09:08:17.139Z,24.14
2023-05-25T09:11:39.688Z,24.11
2023-05-25T09:14:48.476Z,23.74
2023-05-25T09:17:52.701Z,23.48
2023-05-25T09:21:00.464Z,23.48
2023-05-25T09:24:15.698Z,23.61
2023-05-25T09:27:33.098Z,23.84
2023-05-25T09:30:49.097Z,24.34
2023-05-25T09:34:22.922Z,24.51
2023-05-25T09:37:43.662Z,24.04
2023-05-25T09:40:56.584Z,24.43
2023-05-25T09:44:10.946Z,24.63
2023-05-25T09:47:33.105Z,24.47
2023-05-25T09:50:39.829Z,24.44
2023-05-25T09:53:43.434Z,24.41
2023-05-25T09:56:52.809Z,24.82
2023-05-25T10:00:15.905Z,24.68
2023-05-25T10:03:43.692Z,24.73
2023-05-25T10:07:03.255Z,24.33
2023-05-25T10:10:22.677Z,24.53
2023-05-25T10:13:48.906Z,24.43
2023-05-25T10:17:54.466Z,24.35
2023-05-25T10:21:06.605Z,24.32
2023-05-25T10:24:25.048Z,24.77
2023-05-25T10:27:39.850Z,25.29
2023-05-25T10:30:48.996Z,25.49
2023-05-25T10:34:07.680Z,25.62
2023-05-25T10:37:12.513Z,24.96
2023-05-25T10:40:30.123Z,24.95
2023-05-25T10:43:34.509Z,24.83
2023-05-25T10:46:45.476Z,24.13
2023-05-25T10:49:56.637Z,25.26
2023-05-25T10:53:20.946Z,26.11
2023-05-25T10:57:19.591Z,26.59
2023-05-25T11:00:39.274Z,26.75
2023-05-25T11:04:11.705Z,26.66
2023-05-25T11:07:17.032Z,26.50
2023-05-25T11:11:04.681Z,26.00
2023-05-25T11:14:27.845Z,26.43
2023-05-25T11:17:32.958Z,27.04
2023-05-25T11:20:38.386Z,26.89
2023-05-25T11:23:58.718Z,26.72
2023-05-25T11:27:09.001Z,27.67
2023-05-25T11:30:26.760Z,27.35
2023-05-25T11:33:36.465Z,26.25
2023-05-25T11:37:00.655Z,25.22
2023-05-25T11:40:24.389Z,25.75
2023-05-25T11:43:41.866Z,26.47
2023-05-25T11:47:09.066Z,27.02
2023-05-25T11:50:29.547Z,26.26
2023-05-25T11:53:36.047Z,26.18
2023-05-25T11:56:45.377Z,26.46
2023-05-25T12:00:07.194Z,25.44
2023-05-25T12:03:32.475Z,26.18
2023-05-25T12:06:39.305Z,27.39
2023-05-25T12:09:42.203Z,27.06
2023-05-25T12:12:46.890Z,27.62
2023-05-25T12:16:01.297Z,26.37
2023-05-25T12:19:11.344Z,27.01
2023-05-25T12:22:15.127Z,28.88
2023-05-25T12:25:25.896Z,29.31
2023-05-25T12:28:41.672Z,30.83
2023-05-25T12:32:06.559Z,30.57
2023-05-25T12:35:10.449Z,32.02
2023-05-25T12:38:16.493Z,32.11
2023-05-25T12:41:28.146Z,31.01
2023-05-25T12:44:44.877Z,30.39
2023-05-25T12:48:07.525Z,29.23
2023-05-25T12:51:26.951Z,28.20
2023-05-25T12:54:35.009Z,27.57
2023-05-25T12:57:38.042Z,27.24
2023-05-25T13:01:12.890Z,26.92
2023-05-25T13:04:17.076Z,26.75
2023-05-25T13:07:22.942Z,28.04
2023-05-25T13:10:38.779Z,29.96
2023-05-25T13:13:41.585Z,28.78
2023-05-25T13:16:44.648Z,27.95
2023-05-25T13:19:50.754Z,27.77
2023-05-25T13:23:00.069Z,30.78
2023-05-25T13:26:03.632Z,31.76
2023-05-25T13:29:09.977Z,31.86
2023-05-25T13:32:26.610Z,32.77
2023-05-25T13:36:01.538Z,33.11
2023-05-25T13:39:10.913Z,31.73
2023-05-25T13:42:34.406Z,32.07
2023-05-25T13:45:59.248Z,31.93
2023-05-25T13:49:25.126Z,32.52
2023-05-25T13:52:49.962Z,33.11
2023-05-25T13:56:16.251Z,34.54
2023-05-25T13:59:23.051Z,34.09
2023-05-25T14:02:37.591Z,32.70
2023-05-25T14:05:59.661Z,31.03
2023-05-25T14:09:03.497Z,29.32
2023-05-25T14:12:14.610Z,29.99
2023-05-25T14:15:32.762Z,31.52
2023-05-25T14:18:47.733Z,32.10
2023-05-25T14:22:13.134Z,29.54
2023-05-25T14:25:24.200Z,30.97
2023-05-25T14:28:47.244Z,33.55
2023-05-25T14:32:12.041Z,31.15
2023-05-25T14:35:34.036Z,31.33
2023-05-25T14:39:15.714Z,30.83
2023-05-25T14:42:24.608Z,30.72
2023-05-25T14:45:34.080Z,31.50
2023-05-25T14:48:43.958Z,31.46
2023-05-25T14:51:53.745Z,29.89
2023-05-25T14:55:03.523Z,29.16
2023-05-25T14:58:09.814Z,29.05
2023-05-25T15:01:12.772Z,29.41
2023-05-25T15:04:20.911Z,28.30
2023-05-25T15:07:34.975Z,28.71
2023-05-25T15:10:37.725Z,28.78
2023-05-25T15:13:41.140Z,28.68
2023-05-25T15:16:51.804Z,28.51
2023-05-25T15:20:07.410Z,28.33
2023-05-25T15:23:13.569Z,28.58
2023-05-25T15:26:19.761Z,28.09
2023-05-25T15:29:29.278Z,28.23
2023-05-25T15:32:45.245Z,27.51
2023-05-25T15:36:07.246Z,27.41
2023-05-25T15:39:30.132Z,28.09
2023-05-25T15:42:57.087Z,27.53
2023-05-25T15:46:20.251Z,27.59
2023-05-25T15:49:43.188Z,27.44
2023-05-25T15:53:02.242Z,27.94
2023-05-25T15:56:25.110Z,27.86
2023-05-25T15:59:49.137Z,28.03
2023-05-25T16:03:10.218Z,27.89
2023-05-25T16:06:24.298Z,28.07
2023-05-25T16:09:40.351Z,27.22
2023-05-25T16:12:53.456Z,27.00
2023-05-25T16:16:02.311Z,26.42
2023-05-25T16:19:10.013Z,25.96
2023-05-25T16:22:15.149Z,26.31
2023-05-25T16:25:18.906Z,26.05
2023-05-25T16:28:26.280Z,26.06
2023-05-25T16:31:39.122Z,25.75
2023-05-25T16:34:55.156Z,26.23
2023-05-25T16:38:11.400Z,25.95
2023-05-25T16:41:15.260Z,26.33
2023-05-25T16:44:28.828Z,26.97
2023-05-25T16:47:49.720Z,27.37
2023-05-25T16:51:07.530Z,27.08
2023-05-25T16:54:16.760Z,27.27
2023-05-25T16:57:39.901Z,27.01
2023-05-25T17:01:16.146Z,27.23
2023-05-25T17:04:40.853Z,26.51
2023-05-25T17:08:01.837Z,26.48
2023-05-25T17:11:23.764Z,26.96
2023-05-25T17:14:44.623Z,26.48
2023-05-25T17:18:07.906Z,26.61
2023-05-25T17:21:29.070Z,26.56
2023-05-25T17:24:48.861Z,26.15
2023-05-25T17:28:14.673Z,27.25
2023-05-25T17:31:37.902Z,27.37
2023-05-25T17:34:56.792Z,27.38
2023-05-25T17:38:19.904Z,26.85
2023-05-25T17:41:44.730Z,26.26
2023-05-25T17:45:05.779Z,26.25
2023-05-25T17:48:26.940Z,25.64
2023-05-25T17:51:47.739Z,24.92
2023-05-25T17:55:10.819Z,24.63
2023-05-25T17:58:28.804Z,24.62
2023-05-25T18:01:51.910Z,24.56
2023-05-25T18:05:17.814Z,24.65
2023-05-25T18:08:33.950Z,24.47
2023-05-25T18:11:56.612Z,24.24
2023-05-25T18:15:20.764Z,24.44
2023-05-25T18:18:47.772Z,24.11
2023-05-25T18:22:03.905Z,24.00
2023-05-25T18:25:24.804Z,23.88
2023-05-25T18:28:52.816Z,24.00
2023-05-25T18:32:15.709Z,23.93
2023-05-25T18:35:36.750Z,23.83
2023-05-25T18:38:59.743Z,23.30
2023-05-25T18:42:21.736Z,23.30
2023-05-25T18:45:41.765Z,23.32
2023-05-25T18:49:01.670Z,23.41
2023-05-25T18:52:24.750Z,23.29
2023-05-25T18:55:44.993Z,23.08
2023-05-25T18:58:49.580Z,23.12
2023-05-25T19:01:57.808Z,23.10
2023-05-25T19:05:00.615Z,23.09
2023-05-25T19:08:03.376Z,22.97
2023-05-25T19:11:06.225Z,22.61
2023-05-25T19:14:12.045Z,22.76
2023-05-25T19:17:17.291Z,22.87
2023-05-25T19:20:21.893Z,22.87
2023-05-25T19:23:43.335Z,22.77
2023-05-25T19:27:04.358Z,22.52
2023-05-25T19:30:27.555Z,22.48
2023-05-25T19:33:49.430Z,22.25
2023-05-25T19:37:12.585Z,22.34
2023-05-25T19:40:37.329Z,22.26
2023-05-25T19:43:58.328Z,21.89
2023-05-25T19:47:20.371Z,21.92
2023-05-25T19:50:41.441Z,21.86
2023-05-25T19:54:04.520Z,22.06
2023-05-25T19:57:26.342Z,21.82
2023-05-25T20:00:47.462Z,21.64
2023-05-25T20:04:09.445Z,21.70
2023-05-25T20:07:25.680Z,21.44
2023-05-25T20:10:54.355Z,21.66
2023-05-25T20:14:19.862Z,21.60
2023-05-25T20:17:41.466Z,21.33
2023-05-25T20:21:02.485Z,21.42
2023-05-25T20:24:20.640Z,21.64
2023-05-25T20:27:23.683Z,21.38
2023-05-25T20:30:27.298Z,21.44
2023-05-25T20:33:51.479Z,21.52
2023-05-25T20:37:27.465Z,21.49
2023-05-25T20:40:57.634Z,21.29
2023-05-25T20:44:26.454Z,21.35
2023-05-25T20:47:56.462Z,21.27
2023-05-25T20:51:20.501Z,21.23
2023-05-25T20:54:45.423Z,21.26
2023-05-25T20:58:05.381Z,21.12
2023-05-25T21:01:22.740Z,21.13
2023-05-25T21:04:42.438Z,21.03
2023-05-25T21:07:58.534Z,20.87
2023-05-25T21:11:05.199Z,20.98
2023-05-25T21:14:12.418Z,20.80
2023-05-25T21:17:17.144Z,20.80
2023-05-25T21:20:21.136Z,20.62
2023-05-25T21:23:24.078Z,20.71
2023-05-25T21:26:31.383Z,20.71
2023-05-25T21:29:51.480Z,20.75
2023-05-25T21:33:11.405Z,20.72
2023-05-25T21:36:18.920Z,20.70
2023-05-25T21:39:22.554Z,20.70
2023-05-25T21:42:42.987Z,20.47
2023-05-25T21:46:04.021Z,20.33
2023-05-25T21:49:27.389Z,20.57
2023-05-25T21:52:47.347Z,20.52
2023-05-25T21:56:07.309Z,20.38
2023-05-25T21:59:28.524Z,20.40
2023-05-25T22:02:41.992Z,20.36
2023-05-25T22:05:45.800Z,20.34
2023-05-25T22:08:48.959Z,20.38
2023-05-25T22:11:53.797Z,20.27
2023-05-25T22:14:57.644Z,20.27
2023-05-25T22:18:11.296Z,20.02
2023-05-25T22:21:29.144Z,20.14
2023-05-25T22:24:50.069Z,20.23
2023-05-25T22:28:07.098Z,19.93
2023-05-25T22:31:32.290Z,20.04
2023-05-25T22:34:57.094Z,20.16
2023-05-25T22:38:19.059Z,20.08
2023-05-25T22:41:42.193Z,19.75
2023-05-25T22:45:02.236Z,19.87
2023-05-25T22:48:19.268Z,19.92
2023-05-25T22:51:47.165Z,19.83
2023-05-25T22:55:11.199Z,19.76
2023-05-25T22:58:34.191Z,19.82
2023-05-25T23:01:58.272Z,19.67
2023-05-25T23:05:18.139Z,19.46
2023-05-25T23:08:40.090Z,19.59
2023-05-25T23:12:03.151Z,19.41
2023-05-25T23:15:24.072Z,19.47
2023-05-25T23:18:44.083Z,19.64
2023-05-25T23:22:07.070Z,19.48
2023-05-25T23:25:16.647Z,19.53
2023-05-25T23:28:32.313Z,19.44
2023-05-25T23:31:35.817Z,19.45
2023-05-25T23:34:47.306Z,19.39
2023-05-25T23:38:01.919Z,19.50
2023-05-25T23:41:22.000Z,19.46
2023-05-25T23:44:42.043Z,19.41
2023-05-25T23:48:02.168Z,19.40
2023-05-25T23:51:10.379Z,19.47
2023-05-25T23:54:13.160Z,19.43
2023-05-25T23:57:15.846Z,19.40
